sensor_id;sensor_type;location;lat;lon;timestamp;P1;durP1;ratioP1;P2;durP2;ratioP2
76846;SDS011;65813;49.546;8.644;2023-07-16T02:09:08;4.63;;;1.77;;
76846;SDS011;65813;49.546;8.644;2023-07-16T02:19:19;4.85;;;1.70;;
76846;SDS011;65813;49.546;8.644;2023-07-16T03:26:35;4.93;;;1.88;;
76846;SDS011;65813;49.546;8.644;2023-07-16T03:30:58;4.22;;;1.60;;
76846;SDS011;65813;49.546;8.644;2023-07-16T03:35:51;4.18;;;1.75;;
76846;SDS011;65813;49.546;8.644;2023-07-16T03:40:24;6.07;;;1.98;;
76846;SDS011;65813;49.546;8.644;2023-07-16T03:44:30;3.67;;;1.60;;
76846;SDS011;65813;49.546;8.644;2023-07-16T03:49:09;4.38;;;1.92;;
76846;SDS011;65813;49.546;8.644;2023-07-16T03:54:06;4.15;;;1.60;;
76846;SDS011;65813;49.546;8.644;2023-07-16T03:58:23;5.07;;;1.73;;
76846;SDS011;65813;49.546;8.644;2023-07-16T04:02:35;3.95;;;1.88;;
76846;SDS011;65813;49.546;8.644;2023-07-16T04:06:38;3.97;;;2.00;;
76846;SDS011;65813;49.546;8.644;2023-07-16T04:11:14;5.65;;;1.80;;
76846;SDS011;65813;49.546;8.644;2023-07-16T04:15:40;4.90;;;1.70;;
76846;SDS011;65813;49.546;8.644;2023-07-16T04:31:13;4.88;;;1.58;;
76846;SDS011;65813;49.546;8.644;2023-07-16T04:35:04;5.88;;;1.98;;
76846;SDS011;65813;49.546;8.644;2023-07-16T04:55:03;7.85;;;1.88;;
76846;SDS011;65813;49.546;8.644;2023-07-16T06:25:16;4.25;;;1.75;;
76846;SDS011;65813;49.546;8.644;2023-07-16T06:29:58;10.75;;;1.70;;
76846;SDS011;65813;49.546;8.644;2023-07-16T06:34:48;6.05;;;1.80;;
76846;SDS011;65813;49.546;8.644;2023-07-16T06:39:34;4.03;;;1.70;;
76846;SDS011;65813;49.546;8.644;2023-07-16T06:43:36;4.78;;;1.50;;
76846;SDS011;65813;49.546;8.644;2023-07-16T06:47:39;6.55;;;1.90;;
76846;SDS011;65813;49.546;8.644;2023-07-16T06:51:42;4.57;;;1.90;;
76846;SDS011;65813;49.546;8.644;2023-07-16T06:55:51;6.35;;;2.10;;
76846;SDS011;65813;49.546;8.644;2023-07-16T06:59:52;6.20;;;2.08;;
76846;SDS011;65813;49.546;8.644;2023-07-16T07:03:52;5.57;;;2.17;;
76846;SDS011;65813;49.546;8.644;2023-07-16T07:07:53;6.68;;;2.05;;
76846;SDS011;65813;49.546;8.644;2023-07-16T07:11:54;6.07;;;1.97;;
76846;SDS011;65813;49.546;8.644;2023-07-16T07:15:54;4.50;;;2.10;;
76846;SDS011;65813;49.546;8.644;2023-07-16T07:19:54;7.35;;;2.17;;
76846;SDS011;65813;49.546;8.644;2023-07-16T07:23:55;5.53;;;2.13;;
76846;SDS011;65813;49.546;8.644;2023-07-16T07:27:55;5.17;;;1.90;;
76846;SDS011;65813;49.546;8.644;2023-07-16T07:31:55;6.28;;;2.05;;
76846;SDS011;65813;49.546;8.644;2023-07-16T07:35:56;6.37;;;2.20;;
76846;SDS011;65813;49.546;8.644;2023-07-16T07:39:58;4.67;;;1.80;;
76846;SDS011;65813;49.546;8.644;2023-07-16T07:43:58;6.82;;;1.83;;
76846;SDS011;65813;49.546;8.644;2023-07-16T07:47:59;6.75;;;2.20;;
76846;SDS011;65813;49.546;8.644;2023-07-16T07:51:59;4.90;;;1.80;;
76846;SDS011;65813;49.546;8.644;2023-07-16T07:56:00;7.35;;;2.58;;
76846;SDS011;65813;49.546;8.644;2023-07-16T08:00:00;7.28;;;2.17;;
76846;SDS011;65813;49.546;8.644;2023-07-16T08:04:01;5.00;;;2.15;;
76846;SDS011;65813;49.546;8.644;2023-07-16T08:08:01;6.57;;;2.30;;
76846;SDS011;65813;49.546;8.644;2023-07-16T08:12:02;4.68;;;2.17;;
76846;SDS011;65813;49.546;8.644;2023-07-16T08:16:02;5.60;;;2.20;;
76846;SDS011;65813;49.546;8.644;2023-07-16T08:20:04;5.50;;;2.33;;
76846;SDS011;65813;49.546;8.644;2023-07-16T08:24:05;5.40;;;2.15;;
76846;SDS011;65813;49.546;8.644;2023-07-16T08:28:06;6.45;;;2.10;;
76846;SDS011;65813;49.546;8.644;2023-07-16T08:32:07;4.85;;;2.15;;
76846;SDS011;65813;49.546;8.644;2023-07-16T08:36:10;7.00;;;2.10;;
76846;SDS011;65813;49.546;8.644;2023-07-16T08:40:13;5.00;;;2.03;;
76846;SDS011;65813;49.546;8.644;2023-07-16T08:44:14;6.68;;;2.08;;
76846;SDS011;65813;49.546;8.644;2023-07-16T08:48:18;6.65;;;2.58;;
76846;SDS011;65813;49.546;8.644;2023-07-16T08:52:19;4.63;;;1.90;;
76846;SDS011;65813;49.546;8.644;2023-07-16T08:56:19;7.50;;;2.15;;
76846;SDS011;65813;49.546;8.644;2023-07-16T09:00:20;6.13;;;1.90;;
76846;SDS011;65813;49.546;8.644;2023-07-16T09:04:31;5.32;;;2.05;;
76846;SDS011;65813;49.546;8.644;2023-07-16T09:09:06;5.72;;;2.03;;
76846;SDS011;65813;49.546;8.644;2023-07-16T09:13:22;7.68;;;1.88;;
76846;SDS011;65813;49.546;8.644;2023-07-16T09:25:45;7.07;;;2.40;;
76846;SDS011;65813;49.546;8.644;2023-07-16T09:54:57;5.20;;;1.90;;
76846;SDS011;65813;49.546;8.644;2023-07-16T10:04:16;7.32;;;2.63;;
76846;SDS011;65813;49.546;8.644;2023-07-16T10:08:25;5.25;;;2.00;;
76846;SDS011;65813;49.546;8.644;2023-07-16T10:17:49;5.90;;;2.03;;
76846;SDS011;65813;49.546;8.644;2023-07-16T14:51:54;5.55;;;2.40;;
76846;SDS011;65813;49.546;8.644;2023-07-16T14:55:54;6.83;;;2.97;;
76846;SDS011;65813;49.546;8.644;2023-07-16T14:59:54;4.97;;;2.40;;
76846;SDS011;65813;49.546;8.644;2023-07-16T15:07:55;4.60;;;2.22;;
76846;SDS011;65813;49.546;8.644;2023-07-16T15:11:55;6.00;;;2.30;;
76846;SDS011;65813;49.546;8.644;2023-07-16T15:15:56;5.13;;;2.60;;
76846;SDS011;65813;49.546;8.644;2023-07-16T15:19:59;6.05;;;2.33;;
76846;SDS011;65813;49.546;8.644;2023-07-16T15:23:59;4.87;;;2.50;;
76846;SDS011;65813;49.546;8.644;2023-07-16T15:27:59;5.97;;;2.60;;
76846;SDS011;65813;49.546;8.644;2023-07-16T15:32:00;4.63;;;2.47;;
76846;SDS011;65813;49.546;8.644;2023-07-16T15:36:00;5.40;;;2.42;;
76846;SDS011;65813;49.546;8.644;2023-07-16T15:40:11;6.93;;;2.87;;
76846;SDS011;65813;49.546;8.644;2023-07-16T15:44:13;6.72;;;2.80;;
76846;SDS011;65813;49.546;8.644;2023-07-16T15:48:13;5.57;;;2.37;;
76846;SDS011;65813;49.546;8.644;2023-07-16T15:52:14;6.30;;;2.70;;
76846;SDS011;65813;49.546;8.644;2023-07-16T15:56:14;6.03;;;2.70;;
76846;SDS011;65813;49.546;8.644;2023-07-16T16:00:15;5.60;;;2.40;;
76846;SDS011;65813;49.546;8.644;2023-07-16T16:04:16;5.43;;;2.47;;
76846;SDS011;65813;49.546;8.644;2023-07-16T16:08:17;5.85;;;2.70;;
76846;SDS011;65813;49.546;8.644;2023-07-16T16:12:19;5.93;;;2.67;;
76846;SDS011;65813;49.546;8.644;2023-07-16T16:16:19;5.87;;;2.67;;
76846;SDS011;65813;49.546;8.644;2023-07-16T16:20:19;5.55;;;2.40;;
76846;SDS011;65813;49.546;8.644;2023-07-16T16:24:21;7.00;;;2.35;;
76846;SDS011;65813;49.546;8.644;2023-07-16T16:28:21;5.65;;;2.67;;
76846;SDS011;65813;49.546;8.644;2023-07-16T16:32:22;4.93;;;2.58;;
76846;SDS011;65813;49.546;8.644;2023-07-16T16:36:23;4.90;;;2.67;;
76846;SDS011;65813;49.546;8.644;2023-07-16T16:40:23;6.30;;;2.78;;
76846;SDS011;65813;49.546;8.644;2023-07-16T16:44:24;6.75;;;2.90;;
76846;SDS011;65813;49.546;8.644;2023-07-16T16:48:24;5.20;;;2.97;;
76846;SDS011;65813;49.546;8.644;2023-07-16T16:52:25;6.03;;;2.45;;
76846;SDS011;65813;49.546;8.644;2023-07-16T16:56:25;7.00;;;2.42;;
76846;SDS011;65813;49.546;8.644;2023-07-16T17:00:26;4.33;;;2.40;;
76846;SDS011;65813;49.546;8.644;2023-07-16T17:04:27;6.88;;;2.67;;
76846;SDS011;65813;49.546;8.644;2023-07-16T17:08:27;5.50;;;2.40;;
76846;SDS011;65813;49.546;8.644;2023-07-16T17:12:28;5.70;;;2.53;;
76846;SDS011;65813;49.546;8.644;2023-07-16T17:16:28;6.47;;;2.50;;
76846;SDS011;65813;49.546;8.644;2023-07-16T17:20:29;7.00;;;2.63;;
76846;SDS011;65813;49.546;8.644;2023-07-16T17:24:29;5.90;;;2.80;;
76846;SDS011;65813;49.546;8.644;2023-07-16T17:28:29;5.72;;;2.88;;
76846;SDS011;65813;49.546;8.644;2023-07-16T17:32:30;5.00;;;2.40;;
76846;SDS011;65813;49.546;8.644;2023-07-16T17:36:31;6.22;;;2.58;;
76846;SDS011;65813;49.546;8.644;2023-07-16T17:40:31;5.83;;;2.53;;
76846;SDS011;65813;49.546;8.644;2023-07-16T17:44:32;5.50;;;2.60;;
76846;SDS011;65813;49.546;8.644;2023-07-16T17:48:32;6.07;;;2.50;;
76846;SDS011;65813;49.546;8.644;2023-07-16T17:52:32;7.13;;;2.60;;
76846;SDS011;65813;49.546;8.644;2023-07-16T17:56:33;5.35;;;2.65;;
76846;SDS011;65813;49.546;8.644;2023-07-16T18:00:36;7.28;;;2.60;;
76846;SDS011;65813;49.546;8.644;2023-07-16T18:04:37;6.05;;;2.30;;
76846;SDS011;65813;49.546;8.644;2023-07-16T18:08:37;5.78;;;2.60;;
76846;SDS011;65813;49.546;8.644;2023-07-16T18:12:37;6.55;;;2.45;;
76846;SDS011;65813;49.546;8.644;2023-07-16T18:16:38;5.80;;;2.50;;
76846;SDS011;65813;49.546;8.644;2023-07-16T18:20:38;7.15;;;2.40;;
76846;SDS011;65813;49.546;8.644;2023-07-16T18:24:39;5.53;;;2.30;;
76846;SDS011;65813;49.546;8.644;2023-07-16T18:28:39;5.18;;;2.20;;
76846;SDS011;65813;49.546;8.644;2023-07-16T18:32:39;5.70;;;2.70;;
76846;SDS011;65813;49.546;8.644;2023-07-16T18:36:41;4.45;;;2.20;;
76846;SDS011;65813;49.546;8.644;2023-07-16T18:40:41;4.93;;;2.30;;
76846;SDS011;65813;49.546;8.644;2023-07-16T18:44:41;5.37;;;2.80;;
76846;SDS011;65813;49.546;8.644;2023-07-16T18:48:42;5.68;;;2.60;;
76846;SDS011;65813;49.546;8.644;2023-07-16T18:52:42;5.63;;;2.40;;
76846;SDS011;65813;49.546;8.644;2023-07-16T18:56:43;6.22;;;2.47;;
76846;SDS011;65813;49.546;8.644;2023-07-16T19:00:43;6.03;;;2.33;;
76846;SDS011;65813;49.546;8.644;2023-07-16T19:04:46;7.03;;;2.53;;
76846;SDS011;65813;49.546;8.644;2023-07-16T19:08:47;5.73;;;2.20;;
76846;SDS011;65813;49.546;8.644;2023-07-16T19:12:47;6.73;;;2.47;;
76846;SDS011;65813;49.546;8.644;2023-07-16T19:16:48;4.90;;;2.20;;
76846;SDS011;65813;49.546;8.644;2023-07-16T19:20:48;4.93;;;2.40;;
76846;SDS011;65813;49.546;8.644;2023-07-16T19:24:48;4.37;;;1.93;;
76846;SDS011;65813;49.546;8.644;2023-07-16T19:28:49;7.87;;;2.50;;
76846;SDS011;65813;49.546;8.644;2023-07-16T19:32:49;5.50;;;2.30;;
76846;SDS011;65813;49.546;8.644;2023-07-16T19:36:51;5.05;;;2.40;;
76846;SDS011;65813;49.546;8.644;2023-07-16T19:40:51;6.00;;;2.50;;
76846;SDS011;65813;49.546;8.644;2023-07-16T19:44:52;6.03;;;2.33;;
76846;SDS011;65813;49.546;8.644;2023-07-16T19:48:52;6.75;;;2.35;;
76846;SDS011;65813;49.546;8.644;2023-07-16T19:52:53;5.55;;;2.20;;
76846;SDS011;65813;49.546;8.644;2023-07-16T19:56:53;4.87;;;2.37;;
76846;SDS011;65813;49.546;8.644;2023-07-16T20:00:54;5.00;;;2.30;;
76846;SDS011;65813;49.546;8.644;2023-07-16T20:04:54;5.43;;;2.57;;
76846;SDS011;65813;49.546;8.644;2023-07-16T20:08:54;4.80;;;2.33;;
76846;SDS011;65813;49.546;8.644;2023-07-16T20:12:55;6.30;;;2.60;;
76846;SDS011;65813;49.546;8.644;2023-07-16T20:16:55;5.97;;;2.70;;
76846;SDS011;65813;49.546;8.644;2023-07-16T20:20:55;7.53;;;2.67;;
76846;SDS011;65813;49.546;8.644;2023-07-16T20:24:59;5.47;;;2.88;;
76846;SDS011;65813;49.546;8.644;2023-07-16T20:28:59;4.93;;;2.47;;
76846;SDS011;65813;49.546;8.644;2023-07-16T20:33:00;4.05;;;2.13;;
76846;SDS011;65813;49.546;8.644;2023-07-16T20:37:01;5.28;;;2.83;;
76846;SDS011;65813;49.546;8.644;2023-07-16T20:41:02;5.50;;;2.45;;
76846;SDS011;65813;49.546;8.644;2023-07-16T20:45:15;6.85;;;2.80;;
76846;SDS011;65813;49.546;8.644;2023-07-16T20:49:20;5.57;;;2.53;;
76846;SDS011;65813;49.546;8.644;2023-07-16T20:53:21;6.10;;;2.47;;
76846;SDS011;65813;49.546;8.644;2023-07-16T20:57:22;6.82;;;2.80;;
76846;SDS011;65813;49.546;8.644;2023-07-16T21:01:22;5.83;;;2.60;;
76846;SDS011;65813;49.546;8.644;2023-07-16T21:05:23;5.10;;;2.63;;
76846;SDS011;65813;49.546;8.644;2023-07-16T21:09:25;6.22;;;2.90;;
76846;SDS011;65813;49.546;8.644;2023-07-16T21:13:25;4.97;;;2.80;;
76846;SDS011;65813;49.546;8.644;2023-07-16T21:17:26;6.30;;;3.60;;
76846;SDS011;65813;49.546;8.644;2023-07-16T21:21:26;7.40;;;3.63;;
76846;SDS011;65813;49.546;8.644;2023-07-16T21:25:26;6.20;;;3.10;;
76846;SDS011;65813;49.546;8.644;2023-07-16T21:29:27;6.75;;;3.17;;
76846;SDS011;65813;49.546;8.644;2023-07-16T21:33:27;6.03;;;2.77;;
76846;SDS011;65813;49.546;8.644;2023-07-16T21:37:27;8.45;;;2.88;;
76846;SDS011;65813;49.546;8.644;2023-07-16T21:41:28;6.20;;;2.93;;
76846;SDS011;65813;49.546;8.644;2023-07-16T21:45:28;5.50;;;2.83;;
76846;SDS011;65813;49.546;8.644;2023-07-16T21:49:28;5.90;;;2.50;;
76846;SDS011;65813;49.546;8.644;2023-07-16T21:53:29;4.63;;;2.67;;
76846;SDS011;65813;49.546;8.644;2023-07-16T21:57:29;5.13;;;2.60;;
76846;SDS011;65813;49.546;8.644;2023-07-16T22:01:29;3.77;;;2.30;;
76846;SDS011;65813;49.546;8.644;2023-07-16T22:05:30;6.37;;;2.60;;
76846;SDS011;65813;49.546;8.644;2023-07-16T22:09:30;6.50;;;2.70;;
76846;SDS011;65813;49.546;8.644;2023-07-16T22:13:31;5.97;;;2.70;;
76846;SDS011;65813;49.546;8.644;2023-07-16T22:17:31;6.07;;;2.63;;
76846;SDS011;65813;49.546;8.644;2023-07-16T22:21:32;5.50;;;2.63;;
76846;SDS011;65813;49.546;8.644;2023-07-16T22:25:32;4.90;;;2.60;;
76846;SDS011;65813;49.546;8.644;2023-07-16T22:29:32;4.77;;;2.43;;
76846;SDS011;65813;49.546;8.644;2023-07-16T22:33:33;5.97;;;2.50;;
76846;SDS011;65813;49.546;8.644;2023-07-16T22:37:35;6.65;;;2.85;;
76846;SDS011;65813;49.546;8.644;2023-07-16T22:41:35;5.07;;;2.57;;
76846;SDS011;65813;49.546;8.644;2023-07-16T22:45:36;5.60;;;2.57;;
76846;SDS011;65813;49.546;8.644;2023-07-16T22:49:37;4.50;;;2.42;;
76846;SDS011;65813;49.546;8.644;2023-07-16T22:53:37;5.67;;;2.30;;
76846;SDS011;65813;49.546;8.644;2023-07-16T22:57:41;6.72;;;2.83;;
76846;SDS011;65813;49.546;8.644;2023-07-16T23:01:41;5.97;;;2.50;;
76846;SDS011;65813;49.546;8.644;2023-07-16T23:05:42;4.78;;;2.28;;
76846;SDS011;65813;49.546;8.644;2023-07-16T23:09:42;6.35;;;2.22;;
76846;SDS011;65813;49.546;8.644;2023-07-16T23:13:42;5.97;;;2.60;;
76846;SDS011;65813;49.546;8.644;2023-07-16T23:17:43;5.00;;;2.50;;
76846;SDS011;65813;49.546;8.644;2023-07-16T23:21:43;4.53;;;2.37;;
76846;SDS011;65813;49.546;8.644;2023-07-16T23:25:43;4.57;;;2.30;;
76846;SDS011;65813;49.546;8.644;2023-07-16T23:29:44;9.63;;;3.27;;
76846;SDS011;65813;49.546;8.644;2023-07-16T23:33:44;5.30;;;2.37;;
76846;SDS011;65813;49.546;8.644;2023-07-16T23:37:44;3.85;;;2.22;;
76846;SDS011;65813;49.546;8.644;2023-07-16T23:41:45;4.73;;;2.40;;
76846;SDS011;65813;49.546;8.644;2023-07-16T23:45:45;6.07;;;2.90;;
76846;SDS011;65813;49.546;8.644;2023-07-16T23:49:45;5.30;;;2.70;;
76846;SDS011;65813;49.546;8.644;2023-07-16T23:53:46;6.38;;;2.80;;
76846;SDS011;65813;49.546;8.644;2023-07-16T23:57:46;7.00;;;2.83;;
